sensor_id;sensor_type;location;lat;lon;timestamp;P1;durP1;ratioP1;P2;durP2;ratioP2
42614;SDS011;28754;47.700;7.924;2023-11-19T00:01:07;2.38;;;1.35;;
42614;SDS011;28754;47.700;7.924;2023-11-19T00:03:54;2.40;;;1.10;;
42614;SDS011;28754;47.700;7.924;2023-11-19T00:06:40;1.90;;;1.30;;
42614;SDS011;28754;47.700;7.924;2023-11-19T00:09:27;1.60;;;1.20;;
42614;SDS011;28754;47.700;7.924;2023-11-19T00:12:14;1.85;;;1.00;;
42614;SDS011;28754;47.700;7.924;2023-11-19T00:15:01;3.92;;;1.42;;
42614;SDS011;28754;47.700;7.924;2023-11-19T00:17:48;1.92;;;1.20;;
42614;SDS011;28754;47.700;7.924;2023-11-19T00:20:34;3.83;;;1.30;;
42614;SDS011;28754;47.700;7.924;2023-11-19T00:23:21;5.53;;;1.08;;
42614;SDS011;28754;47.700;7.924;2023-11-19T00:26:09;3.50;;;2.28;;
42614;SDS011;28754;47.700;7.924;2023-11-19T00:28:57;7.60;;;1.27;;
42614;SDS011;28754;47.700;7.924;2023-11-19T00:31:45;2.72;;;1.20;;
42614;SDS011;28754;47.700;7.924;2023-11-19T00:34:31;1.95;;;1.05;;
42614;SDS011;28754;47.700;7.924;2023-11-19T00:37:18;1.05;;;0.70;;
42614;SDS011;28754;47.700;7.924;2023-11-19T00:40:05;1.88;;;1.02;;
42614;SDS011;28754;47.700;7.924;2023-11-19T00:42:52;2.03;;;1.25;;
42614;SDS011;28754;47.700;7.924;2023-11-19T00:45:39;1.60;;;1.10;;
42614;SDS011;28754;47.700;7.924;2023-11-19T00:48:26;1.45;;;1.10;;
42614;SDS011;28754;47.700;7.924;2023-11-19T00:51:14;1.65;;;1.20;;
42614;SDS011;28754;47.700;7.924;2023-11-19T00:54:01;1.70;;;1.10;;
42614;SDS011;28754;47.700;7.924;2023-11-19T00:56:47;4.43;;;1.75;;
42614;SDS011;28754;47.700;7.924;2023-11-19T00:59:34;4.30;;;1.50;;
42614;SDS011;28754;47.700;7.924;2023-11-19T01:02:21;1.98;;;1.13;;
42614;SDS011;28754;47.700;7.924;2023-11-19T01:05:08;3.78;;;1.30;;
42614;SDS011;28754;47.700;7.924;2023-11-19T01:07:55;2.35;;;1.35;;
42614;SDS011;28754;47.700;7.924;2023-11-19T01:10:42;2.65;;;1.25;;
42614;SDS011;28754;47.700;7.924;2023-11-19T01:13:29;3.88;;;1.35;;
42614;SDS011;28754;47.700;7.924;2023-11-19T01:16:16;0.75;;;0.73;;
42614;SDS011;28754;47.700;7.924;2023-11-19T01:19:04;1.60;;;1.23;;
42614;SDS011;28754;47.700;7.924;2023-11-19T01:21:51;3.10;;;1.17;;
42614;SDS011;28754;47.700;7.924;2023-11-19T01:24:38;1.27;;;1.17;;
42614;SDS011;28754;47.700;7.924;2023-11-19T01:27:24;3.30;;;1.17;;
42614;SDS011;28754;47.700;7.924;2023-11-19T01:30:11;1.40;;;0.90;;
42614;SDS011;28754;47.700;7.924;2023-11-19T01:32:58;3.45;;;1.20;;
42614;SDS011;28754;47.700;7.924;2023-11-19T01:35:46;4.60;;;1.20;;
42614;SDS011;28754;47.700;7.924;2023-11-19T01:38:32;6.30;;;1.00;;
42614;SDS011;28754;47.700;7.924;2023-11-19T01:41:20;3.75;;;1.98;;
42614;SDS011;28754;47.700;7.924;2023-11-19T01:44:07;3.30;;;1.38;;
42614;SDS011;28754;47.700;7.924;2023-11-19T01:46:53;0.95;;;0.77;;
42614;SDS011;28754;47.700;7.924;2023-11-19T01:49:40;1.23;;;1.00;;
42614;SDS011;28754;47.700;7.924;2023-11-19T01:52:27;1.17;;;0.65;;
42614;SDS011;28754;47.700;7.924;2023-11-19T01:55:15;0.80;;;0.70;;
42614;SDS011;28754;47.700;7.924;2023-11-19T01:58:01;1.10;;;0.80;;
42614;SDS011;28754;47.700;7.924;2023-11-19T02:00:48;1.88;;;0.80;;
42614;SDS011;28754;47.700;7.924;2023-11-19T02:03:35;1.00;;;0.40;;
42614;SDS011;28754;47.700;7.924;2023-11-19T02:06:22;1.25;;;0.57;;
42614;SDS011;28754;47.700;7.924;2023-11-19T02:09:10;0.50;;;0.50;;
42614;SDS011;28754;47.700;7.924;2023-11-19T02:11:57;1.00;;;0.50;;
42614;SDS011;28754;47.700;7.924;2023-11-19T02:14:43;2.30;;;0.82;;
42614;SDS011;28754;47.700;7.924;2023-11-19T02:17:30;1.20;;;0.70;;
42614;SDS011;28754;47.700;7.924;2023-11-19T02:20:17;0.73;;;0.60;;
42614;SDS011;28754;47.700;7.924;2023-11-19T02:23:06;0.77;;;0.60;;
42614;SDS011;28754;47.700;7.924;2023-11-19T02:29:00;0.90;;;0.63;;
42614;SDS011;28754;47.700;7.924;2023-11-19T02:31:46;3.60;;;0.98;;
42614;SDS011;28754;47.700;7.924;2023-11-19T02:34:33;1.08;;;0.60;;
42614;SDS011;28754;47.700;7.924;2023-11-19T02:37:19;0.40;;;0.40;;
42614;SDS011;28754;47.700;7.924;2023-11-19T02:40:06;0.90;;;0.60;;
42614;SDS011;28754;47.700;7.924;2023-11-19T02:42:55;0.60;;;0.60;;
42614;SDS011;28754;47.700;7.924;2023-11-19T02:45:42;0.60;;;0.50;;
42614;SDS011;28754;47.700;7.924;2023-11-19T02:48:31;5.25;;;0.90;;
42614;SDS011;28754;47.700;7.924;2023-11-19T02:51:18;2.90;;;0.65;;
42614;SDS011;28754;47.700;7.924;2023-11-19T02:54:05;0.80;;;0.55;;
42614;SDS011;28754;47.700;7.924;2023-11-19T02:56:52;1.02;;;0.70;;
42614;SDS011;28754;47.700;7.924;2023-11-19T02:59:45;2.33;;;0.55;;
42614;SDS011;28754;47.700;7.924;2023-11-19T03:02:32;0.70;;;0.52;;
42614;SDS011;28754;47.700;7.924;2023-11-19T03:05:29;0.85;;;0.55;;
42614;SDS011;28754;47.700;7.924;2023-11-19T03:08:19;0.82;;;0.63;;
42614;SDS011;28754;47.700;7.924;2023-11-19T03:11:06;2.17;;;0.60;;
42614;SDS011;28754;47.700;7.924;2023-11-19T03:13:54;11.85;;;1.70;;
42614;SDS011;28754;47.700;7.924;2023-11-19T03:16:41;0.40;;;0.30;;
42614;SDS011;28754;47.700;7.924;2023-11-19T03:19:37;0.63;;;0.20;;
42614;SDS011;28754;47.700;7.924;2023-11-19T03:22:24;2.13;;;0.40;;
42614;SDS011;28754;47.700;7.924;2023-11-19T03:25:10;4.55;;;0.40;;
42614;SDS011;28754;47.700;7.924;2023-11-19T03:27:57;1.15;;;0.40;;
42614;SDS011;28754;47.700;7.924;2023-11-19T03:30:45;0.43;;;0.20;;
42614;SDS011;28754;47.700;7.924;2023-11-19T03:33:31;15.13;;;0.95;;
42614;SDS011;28754;47.700;7.924;2023-11-19T03:36:19;13.68;;;1.20;;
42614;SDS011;28754;47.700;7.924;2023-11-19T03:39:08;17.90;;;1.20;;
42614;SDS011;28754;47.700;7.924;2023-11-19T03:41:55;10.85;;;0.80;;
42614;SDS011;28754;47.700;7.924;2023-11-19T03:44:41;55.88;;;4.15;;
42614;SDS011;28754;47.700;7.924;2023-11-19T03:47:28;9.15;;;1.15;;
42614;SDS011;28754;47.700;7.924;2023-11-19T03:50:15;0.55;;;0.10;;
42614;SDS011;28754;47.700;7.924;2023-11-19T03:53:02;2.20;;;0.15;;
42614;SDS011;28754;47.700;7.924;2023-11-19T03:55:49;45.88;;;4.95;;
42614;SDS011;28754;47.700;7.924;2023-11-19T03:58:35;194.90;;;13.23;;
42614;SDS011;28754;47.700;7.924;2023-11-19T04:01:24;323.75;;;19.95;;
42614;SDS011;28754;47.700;7.924;2023-11-19T04:04:10;245.05;;;13.27;;
42614;SDS011;28754;47.700;7.924;2023-11-19T04:06:57;255.20;;;17.17;;
42614;SDS011;28754;47.700;7.924;2023-11-19T04:09:46;268.35;;;16.13;;
42614;SDS011;28754;47.700;7.924;2023-11-19T04:12:33;321.50;;;16.42;;
42614;SDS011;28754;47.700;7.924;2023-11-19T04:15:20;284.10;;;14.13;;
42614;SDS011;28754;47.700;7.924;2023-11-19T04:18:08;245.55;;;14.70;;
42614;SDS011;28754;47.700;7.924;2023-11-19T04:20:55;270.02;;;15.35;;
42614;SDS011;28754;47.700;7.924;2023-11-19T04:23:42;226.23;;;10.07;;
42614;SDS011;28754;47.700;7.924;2023-11-19T04:26:29;242.75;;;15.73;;
42614;SDS011;28754;47.700;7.924;2023-11-19T04:29:17;153.65;;;7.75;;
42614;SDS011;28754;47.700;7.924;2023-11-19T04:32:05;222.63;;;13.48;;
42614;SDS011;28754;47.700;7.924;2023-11-19T04:34:53;252.85;;;12.25;;
42614;SDS011;28754;47.700;7.924;2023-11-19T04:37:39;181.50;;;9.07;;
42614;SDS011;28754;47.700;7.924;2023-11-19T04:40:27;230.45;;;11.27;;
42614;SDS011;28754;47.700;7.924;2023-11-19T04:43:14;173.70;;;10.88;;
42614;SDS011;28754;47.700;7.924;2023-11-19T04:46:03;222.52;;;13.07;;
42614;SDS011;28754;47.700;7.924;2023-11-19T04:48:50;164.68;;;11.10;;
42614;SDS011;28754;47.700;7.924;2023-11-19T04:51:38;153.82;;;9.90;;
42614;SDS011;28754;47.700;7.924;2023-11-19T04:54:31;169.52;;;8.88;;
42614;SDS011;28754;47.700;7.924;2023-11-19T04:57:18;151.40;;;9.50;;
42614;SDS011;28754;47.700;7.924;2023-11-19T05:00:05;222.60;;;17.13;;
42614;SDS011;28754;47.700;7.924;2023-11-19T05:02:53;156.10;;;10.15;;
42614;SDS011;28754;47.700;7.924;2023-11-19T05:05:40;185.88;;;11.38;;
42614;SDS011;28754;47.700;7.924;2023-11-19T05:08:26;189.18;;;10.20;;
42614;SDS011;28754;47.700;7.924;2023-11-19T05:11:13;241.45;;;10.68;;
42614;SDS011;28754;47.700;7.924;2023-11-19T05:14:05;175.38;;;7.13;;
42614;SDS011;28754;47.700;7.924;2023-11-19T05:16:52;210.95;;;10.63;;
42614;SDS011;28754;47.700;7.924;2023-11-19T05:19:38;240.82;;;12.65;;
42614;SDS011;28754;47.700;7.924;2023-11-19T05:22:25;226.75;;;12.88;;
42614;SDS011;28754;47.700;7.924;2023-11-19T05:25:12;213.98;;;9.85;;
42614;SDS011;28754;47.700;7.924;2023-11-19T05:27:58;217.75;;;12.23;;
42614;SDS011;28754;47.700;7.924;2023-11-19T05:30:45;166.32;;;9.77;;
42614;SDS011;28754;47.700;7.924;2023-11-19T05:33:31;185.82;;;11.93;;
42614;SDS011;28754;47.700;7.924;2023-11-19T05:36:18;184.20;;;9.05;;
42614;SDS011;28754;47.700;7.924;2023-11-19T05:39:05;150.20;;;10.40;;
42614;SDS011;28754;47.700;7.924;2023-11-19T05:41:52;175.75;;;10.75;;
42614;SDS011;28754;47.700;7.924;2023-11-19T05:44:38;212.68;;;11.20;;
42614;SDS011;28754;47.700;7.924;2023-11-19T05:47:25;182.23;;;12.40;;
42614;SDS011;28754;47.700;7.924;2023-11-19T05:50:12;196.15;;;12.55;;
42614;SDS011;28754;47.700;7.924;2023-11-19T05:52:58;251.20;;;14.80;;
42614;SDS011;28754;47.700;7.924;2023-11-19T05:55:45;273.33;;;17.95;;
42614;SDS011;28754;47.700;7.924;2023-11-19T05:58:35;225.82;;;13.43;;
42614;SDS011;28754;47.700;7.924;2023-11-19T06:01:23;203.52;;;11.88;;
42614;SDS011;28754;47.700;7.924;2023-11-19T06:04:10;205.40;;;11.32;;
42614;SDS011;28754;47.700;7.924;2023-11-19T06:06:57;182.18;;;9.93;;
42614;SDS011;28754;47.700;7.924;2023-11-19T06:09:43;146.02;;;6.25;;
42614;SDS011;28754;47.700;7.924;2023-11-19T06:12:30;223.68;;;12.45;;
42614;SDS011;28754;47.700;7.924;2023-11-19T06:15:17;148.85;;;8.48;;
42614;SDS011;28754;47.700;7.924;2023-11-19T06:18:04;155.27;;;9.55;;
42614;SDS011;28754;47.700;7.924;2023-11-19T06:20:51;277.13;;;15.60;;
42614;SDS011;28754;47.700;7.924;2023-11-19T06:23:38;192.23;;;10.88;;
42614;SDS011;28754;47.700;7.924;2023-11-19T06:26:24;206.68;;;11.85;;
42614;SDS011;28754;47.700;7.924;2023-11-19T06:29:11;174.50;;;10.75;;
42614;SDS011;28754;47.700;7.924;2023-11-19T06:31:58;151.23;;;8.80;;
42614;SDS011;28754;47.700;7.924;2023-11-19T06:34:45;3.28;;;0.43;;
42614;SDS011;28754;47.700;7.924;2023-11-19T06:37:32;2.28;;;0.30;;
42614;SDS011;28754;47.700;7.924;2023-11-19T06:40:19;1.10;;;0.22;;
42614;SDS011;28754;47.700;7.924;2023-11-19T06:43:05;57.72;;;6.18;;
42614;SDS011;28754;47.700;7.924;2023-11-19T06:45:54;155.77;;;12.00;;
42614;SDS011;28754;47.700;7.924;2023-11-19T06:48:41;130.55;;;7.63;;
42614;SDS011;28754;47.700;7.924;2023-11-19T06:51:29;143.20;;;8.07;;
42614;SDS011;28754;47.700;7.924;2023-11-19T06:54:16;125.28;;;7.22;;
42614;SDS011;28754;47.700;7.924;2023-11-19T06:57:03;145.35;;;7.15;;
42614;SDS011;28754;47.700;7.924;2023-11-19T06:59:51;88.65;;;5.47;;
42614;SDS011;28754;47.700;7.924;2023-11-19T07:02:37;89.97;;;6.95;;
42614;SDS011;28754;47.700;7.924;2023-11-19T07:05:25;100.65;;;7.38;;
42614;SDS011;28754;47.700;7.924;2023-11-19T07:08:14;153.90;;;10.00;;
42614;SDS011;28754;47.700;7.924;2023-11-19T07:11:01;124.28;;;8.52;;
42614;SDS011;28754;47.700;7.924;2023-11-19T07:13:49;163.13;;;9.95;;
42614;SDS011;28754;47.700;7.924;2023-11-19T07:16:37;180.20;;;14.15;;
42614;SDS011;28754;47.700;7.924;2023-11-19T07:19:24;122.95;;;5.60;;
42614;SDS011;28754;47.700;7.924;2023-11-19T07:22:12;142.10;;;8.70;;
42614;SDS011;28754;47.700;7.924;2023-11-19T07:24:58;137.13;;;6.72;;
42614;SDS011;28754;47.700;7.924;2023-11-19T07:31:03;177.05;;;8.93;;
42614;SDS011;28754;47.700;7.924;2023-11-19T07:33:52;203.65;;;11.20;;
42614;SDS011;28754;47.700;7.924;2023-11-19T07:36:45;174.88;;;9.98;;
42614;SDS011;28754;47.700;7.924;2023-11-19T07:39:31;205.75;;;13.85;;
42614;SDS011;28754;47.700;7.924;2023-11-19T07:42:19;154.07;;;8.60;;
42614;SDS011;28754;47.700;7.924;2023-11-19T07:45:09;230.43;;;12.55;;
42614;SDS011;28754;47.700;7.924;2023-11-19T07:48:01;202.52;;;11.10;;
42614;SDS011;28754;47.700;7.924;2023-11-19T07:50:55;188.57;;;9.80;;
42614;SDS011;28754;47.700;7.924;2023-11-19T07:53:52;270.60;;;15.52;;
42614;SDS011;28754;47.700;7.924;2023-11-19T07:56:41;172.07;;;10.18;;
42614;SDS011;28754;47.700;7.924;2023-11-19T07:59:30;188.45;;;9.20;;
42614;SDS011;28754;47.700;7.924;2023-11-19T08:02:17;171.50;;;8.35;;
42614;SDS011;28754;47.700;7.924;2023-11-19T08:05:05;183.70;;;11.13;;
42614;SDS011;28754;47.700;7.924;2023-11-19T08:07:52;151.05;;;9.95;;
42614;SDS011;28754;47.700;7.924;2023-11-19T08:10:41;153.88;;;7.63;;
42614;SDS011;28754;47.700;7.924;2023-11-19T08:13:30;152.25;;;10.82;;
42614;SDS011;28754;47.700;7.924;2023-11-19T08:16:17;216.20;;;12.38;;
42614;SDS011;28754;47.700;7.924;2023-11-19T08:19:04;205.77;;;9.95;;
42614;SDS011;28754;47.700;7.924;2023-11-19T08:21:57;232.27;;;11.93;;
42614;SDS011;28754;47.700;7.924;2023-11-19T08:25:15;157.18;;;11.35;;
42614;SDS011;28754;47.700;7.924;2023-11-19T08:28:05;185.13;;;9.95;;
42614;SDS011;28754;47.700;7.924;2023-11-19T08:30:52;210.63;;;11.20;;
42614;SDS011;28754;47.700;7.924;2023-11-19T08:33:38;247.20;;;14.30;;
42614;SDS011;28754;47.700;7.924;2023-11-19T08:36:25;253.57;;;15.93;;
42614;SDS011;28754;47.700;7.924;2023-11-19T08:39:14;315.85;;;21.05;;
42614;SDS011;28754;47.700;7.924;2023-11-19T08:42:00;244.35;;;14.98;;
42614;SDS011;28754;47.700;7.924;2023-11-19T08:44:50;170.73;;;10.15;;
42614;SDS011;28754;47.700;7.924;2023-11-19T08:47:40;284.08;;;18.73;;
42614;SDS011;28754;47.700;7.924;2023-11-19T08:50:26;239.48;;;18.48;;
42614;SDS011;28754;47.700;7.924;2023-11-19T08:53:13;316.15;;;20.80;;
42614;SDS011;28754;47.700;7.924;2023-11-19T08:56:00;201.27;;;11.52;;
42614;SDS011;28754;47.700;7.924;2023-11-19T08:58:48;272.90;;;14.32;;
42614;SDS011;28754;47.700;7.924;2023-11-19T09:01:35;316.20;;;20.30;;
42614;SDS011;28754;47.700;7.924;2023-11-19T09:04:25;251.40;;;14.27;;
42614;SDS011;28754;47.700;7.924;2023-11-19T09:07:12;204.45;;;15.00;;
42614;SDS011;28754;47.700;7.924;2023-11-19T09:09:59;253.63;;;14.82;;
42614;SDS011;28754;47.700;7.924;2023-11-19T09:12:45;331.15;;;20.30;;
42614;SDS011;28754;47.700;7.924;2023-11-19T09:15:32;256.13;;;13.27;;
42614;SDS011;28754;47.700;7.924;2023-11-19T09:18:19;180.60;;;9.65;;
42614;SDS011;28754;47.700;7.924;2023-11-19T09:21:06;215.38;;;14.45;;
42614;SDS011;28754;47.700;7.924;2023-11-19T09:23:53;255.77;;;13.68;;
42614;SDS011;28754;47.700;7.924;2023-11-19T09:26:40;328.60;;;15.27;;
42614;SDS011;28754;47.700;7.924;2023-11-19T09:29:27;283.45;;;13.68;;
42614;SDS011;28754;47.700;7.924;2023-11-19T09:32:17;251.55;;;13.40;;
42614;SDS011;28754;47.700;7.924;2023-11-19T09:35:04;317.23;;;18.25;;
42614;SDS011;28754;47.700;7.924;2023-11-19T09:37:52;266.83;;;22.08;;
42614;SDS011;28754;47.700;7.924;2023-11-19T09:40:39;247.65;;;20.10;;
42614;SDS011;28754;47.700;7.924;2023-11-19T09:43:25;132.40;;;9.50;;
42614;SDS011;28754;47.700;7.924;2023-11-19T09:46:14;19.77;;;2.05;;
42614;SDS011;28754;47.700;7.924;2023-11-19T09:49:08;221.20;;;17.10;;
42614;SDS011;28754;47.700;7.924;2023-11-19T09:51:56;156.50;;;11.32;;
42614;SDS011;28754;47.700;7.924;2023-11-19T09:54:44;286.52;;;20.48;;
42614;SDS011;28754;47.700;7.924;2023-11-19T09:57:33;228.52;;;19.75;;
42614;SDS011;28754;47.700;7.924;2023-11-19T10:00:25;234.38;;;14.80;;
42614;SDS011;28754;47.700;7.924;2023-11-19T10:03:13;280.20;;;21.23;;
42614;SDS011;28754;47.700;7.924;2023-11-19T10:06:01;251.07;;;17.10;;
42614;SDS011;28754;47.700;7.924;2023-11-19T10:08:48;250.48;;;18.20;;
42614;SDS011;28754;47.700;7.924;2023-11-19T10:11:38;222.90;;;12.75;;
42614;SDS011;28754;47.700;7.924;2023-11-19T10:14:30;238.70;;;15.40;;
42614;SDS011;28754;47.700;7.924;2023-11-19T10:17:19;209.88;;;10.40;;
42614;SDS011;28754;47.700;7.924;2023-11-19T10:20:06;239.20;;;12.98;;
42614;SDS011;28754;47.700;7.924;2023-11-19T10:22:58;214.75;;;12.93;;
42614;SDS011;28754;47.700;7.924;2023-11-19T10:25:49;147.63;;;9.05;;
42614;SDS011;28754;47.700;7.924;2023-11-19T10:28:39;205.57;;;13.88;;
42614;SDS011;28754;47.700;7.924;2023-11-19T10:31:30;196.18;;;14.27;;
42614;SDS011;28754;47.700;7.924;2023-11-19T10:34:24;265.65;;;16.98;;
42614;SDS011;28754;47.700;7.924;2023-11-19T10:37:29;195.63;;;12.25;;
42614;SDS011;28754;47.700;7.924;2023-11-19T10:40:21;110.82;;;8.10;;
42614;SDS011;28754;47.700;7.924;2023-11-19T10:43:10;243.15;;;19.90;;
42614;SDS011;28754;47.700;7.924;2023-11-19T10:46:11;134.55;;;11.27;;
42614;SDS011;28754;47.700;7.924;2023-11-19T10:48:59;175.48;;;15.02;;
42614;SDS011;28754;47.700;7.924;2023-11-19T10:51:46;205.52;;;13.93;;
42614;SDS011;28754;47.700;7.924;2023-11-19T10:54:36;238.23;;;16.20;;
42614;SDS011;28754;47.700;7.924;2023-11-19T10:57:43;236.73;;;17.50;;
42614;SDS011;28754;47.700;7.924;2023-11-19T11:00:45;210.57;;;12.05;;
42614;SDS011;28754;47.700;7.924;2023-11-19T11:03:41;239.35;;;13.35;;
42614;SDS011;28754;47.700;7.924;2023-11-19T11:06:32;234.02;;;11.48;;
42614;SDS011;28754;47.700;7.924;2023-11-19T11:17:39;369.95;;;24.60;;
42614;SDS011;28754;47.700;7.924;2023-11-19T11:26:46;270.75;;;19.90;;
42614;SDS011;28754;47.700;7.924;2023-11-19T11:40:22;303.05;;;27.02;;
42614;SDS011;28754;47.700;7.924;2023-11-19T11:46:53;302.63;;;25.17;;
42614;SDS011;28754;47.700;7.924;2023-11-19T11:49:43;2.42;;;1.45;;
42614;SDS011;28754;47.700;7.924;2023-11-19T11:52:30;2.08;;;1.15;;
42614;SDS011;28754;47.700;7.924;2023-11-19T11:55:23;2.17;;;0.90;;
42614;SDS011;28754;47.700;7.924;2023-11-19T11:58:27;24.20;;;3.08;;
42614;SDS011;28754;47.700;7.924;2023-11-19T12:01:18;3.85;;;1.13;;
42614;SDS011;28754;47.700;7.924;2023-11-19T12:04:06;29.95;;;3.35;;
42614;SDS011;28754;47.700;7.924;2023-11-19T12:07:17;71.03;;;4.25;;
42614;SDS011;28754;47.700;7.924;2023-11-19T12:10:22;96.90;;;7.25;;
42614;SDS011;28754;47.700;7.924;2023-11-19T12:13:11;88.78;;;8.07;;
42614;SDS011;28754;47.700;7.924;2023-11-19T12:18:47;86.40;;;9.07;;
42614;SDS011;28754;47.700;7.924;2023-11-19T12:21:34;82.47;;;5.63;;
42614;SDS011;28754;47.700;7.924;2023-11-19T12:51:53;285.13;;;23.67;;
42614;SDS011;28754;47.700;7.924;2023-11-19T12:54:49;277.30;;;21.52;;
42614;SDS011;28754;47.700;7.924;2023-11-19T12:57:45;5.40;;;2.25;;
42614;SDS011;28754;47.700;7.924;2023-11-19T13:03:22;13.13;;;3.90;;
42614;SDS011;28754;47.700;7.924;2023-11-19T13:06:17;47.15;;;5.88;;
42614;SDS011;28754;47.700;7.924;2023-11-19T13:09:07;165.77;;;16.42;;
42614;SDS011;28754;47.700;7.924;2023-11-19T13:11:59;4.88;;;2.28;;
42614;SDS011;28754;47.700;7.924;2023-11-19T13:14:49;3.55;;;2.15;;
42614;SDS011;28754;47.700;7.924;2023-11-19T13:17:37;2.38;;;1.67;;
42614;SDS011;28754;47.700;7.924;2023-11-19T13:20:24;3.53;;;1.52;;
42614;SDS011;28754;47.700;7.924;2023-11-19T13:23:11;1.95;;;1.27;;
42614;SDS011;28754;47.700;7.924;2023-11-19T13:25:59;2.97;;;1.48;;
42614;SDS011;28754;47.700;7.924;2023-11-19T13:28:45;3.50;;;1.35;;
42614;SDS011;28754;47.700;7.924;2023-11-19T13:31:32;2.45;;;1.27;;
42614;SDS011;28754;47.700;7.924;2023-11-19T13:34:19;1.92;;;1.55;;
42614;SDS011;28754;47.700;7.924;2023-11-19T13:37:05;6.50;;;1.35;;
42614;SDS011;28754;47.700;7.924;2023-11-19T13:39:53;5.93;;;1.50;;
42614;SDS011;28754;47.700;7.924;2023-11-19T13:42:40;3.97;;;1.58;;
42614;SDS011;28754;47.700;7.924;2023-11-19T13:45:30;3.40;;;1.02;;
42614;SDS011;28754;47.700;7.924;2023-11-19T13:48:17;2.50;;;0.95;;
42614;SDS011;28754;47.700;7.924;2023-11-19T13:51:03;2.58;;;1.38;;
42614;SDS011;28754;47.700;7.924;2023-11-19T13:53:51;2.40;;;1.50;;
42614;SDS011;28754;47.700;7.924;2023-11-19T13:56:38;2.33;;;1.42;;
42614;SDS011;28754;47.700;7.924;2023-11-19T13:59:24;3.10;;;1.85;;
42614;SDS011;28754;47.700;7.924;2023-11-19T14:02:11;4.00;;;1.60;;
42614;SDS011;28754;47.700;7.924;2023-11-19T14:04:58;3.08;;;1.30;;
42614;SDS011;28754;47.700;7.924;2023-11-19T14:07:44;7.43;;;1.45;;
42614;SDS011;28754;47.700;7.924;2023-11-19T14:10:34;2.90;;;1.00;;
42614;SDS011;28754;47.700;7.924;2023-11-19T14:13:22;10.02;;;1.80;;
42614;SDS011;28754;47.700;7.924;2023-11-19T14:16:10;3.50;;;1.58;;
42614;SDS011;28754;47.700;7.924;2023-11-19T14:18:58;1.85;;;0.98;;
42614;SDS011;28754;47.700;7.924;2023-11-19T14:21:45;2.42;;;1.00;;
42614;SDS011;28754;47.700;7.924;2023-11-19T14:24:33;2.63;;;1.00;;
42614;SDS011;28754;47.700;7.924;2023-11-19T14:27:20;6.18;;;1.60;;
42614;SDS011;28754;47.700;7.924;2023-11-19T14:30:08;7.63;;;1.60;;
42614;SDS011;28754;47.700;7.924;2023-11-19T14:41:27;7.18;;;2.10;;
42614;SDS011;28754;47.700;7.924;2023-11-19T14:44:17;3.72;;;1.85;;
42614;SDS011;28754;47.700;7.924;2023-11-19T14:47:08;9.02;;;2.05;;
42614;SDS011;28754;47.700;7.924;2023-11-19T14:49:57;17.90;;;3.08;;
42614;SDS011;28754;47.700;7.924;2023-11-19T14:53:10;3.55;;;2.05;;
42614;SDS011;28754;47.700;7.924;2023-11-19T14:55:57;8.05;;;2.08;;
42614;SDS011;28754;47.700;7.924;2023-11-19T14:58:44;5.43;;;1.92;;
42614;SDS011;28754;47.700;7.924;2023-11-19T15:01:30;7.40;;;2.20;;
42614;SDS011;28754;47.700;7.924;2023-11-19T15:04:23;6.63;;;3.63;;
42614;SDS011;28754;47.700;7.924;2023-11-19T15:07:13;7.97;;;2.05;;
42614;SDS011;28754;47.700;7.924;2023-11-19T15:10:00;4.53;;;1.95;;
42614;SDS011;28754;47.700;7.924;2023-11-19T15:12:46;4.07;;;1.50;;
42614;SDS011;28754;47.700;7.924;2023-11-19T15:15:36;5.30;;;1.70;;
42614;SDS011;28754;47.700;7.924;2023-11-19T15:18:24;2.72;;;1.60;;
42614;SDS011;28754;47.700;7.924;2023-11-19T15:21:14;4.63;;;1.63;;
42614;SDS011;28754;47.700;7.924;2023-11-19T15:24:19;4.45;;;1.50;;
42614;SDS011;28754;47.700;7.924;2023-11-19T15:27:06;5.63;;;1.52;;
42614;SDS011;28754;47.700;7.924;2023-11-19T15:29:53;8.23;;;1.50;;
42614;SDS011;28754;47.700;7.924;2023-11-19T15:32:42;3.67;;;1.20;;
42614;SDS011;28754;47.700;7.924;2023-11-19T15:35:29;9.60;;;1.65;;
42614;SDS011;28754;47.700;7.924;2023-11-19T15:38:18;6.95;;;1.10;;
42614;SDS011;28754;47.700;7.924;2023-11-19T15:41:05;4.95;;;0.93;;
42614;SDS011;28754;47.700;7.924;2023-11-19T15:43:53;2.40;;;0.85;;
42614;SDS011;28754;47.700;7.924;2023-11-19T15:46:40;1.02;;;0.68;;
42614;SDS011;28754;47.700;7.924;2023-11-19T15:49:27;1.90;;;1.05;;
42614;SDS011;28754;47.700;7.924;2023-11-19T15:52:15;1.00;;;0.55;;
42614;SDS011;28754;47.700;7.924;2023-11-19T15:55:02;3.50;;;0.90;;
42614;SDS011;28754;47.700;7.924;2023-11-19T15:57:49;2.10;;;0.70;;
42614;SDS011;28754;47.700;7.924;2023-11-19T16:00:38;1.23;;;0.57;;
42614;SDS011;28754;47.700;7.924;2023-11-19T16:03:32;2.88;;;0.80;;
42614;SDS011;28754;47.700;7.924;2023-11-19T16:06:22;1.63;;;0.70;;
42614;SDS011;28754;47.700;7.924;2023-11-19T16:09:13;0.77;;;0.50;;
42614;SDS011;28754;47.700;7.924;2023-11-19T16:12:07;0.82;;;0.50;;
42614;SDS011;28754;47.700;7.924;2023-11-19T16:14:59;1.20;;;0.47;;
42614;SDS011;28754;47.700;7.924;2023-11-19T16:17:59;0.93;;;0.50;;
42614;SDS011;28754;47.700;7.924;2023-11-19T16:20:49;3.25;;;0.60;;
42614;SDS011;28754;47.700;7.924;2023-11-19T16:23:38;2.70;;;0.95;;
42614;SDS011;28754;47.700;7.924;2023-11-19T16:26:31;1.30;;;0.65;;
42614;SDS011;28754;47.700;7.924;2023-11-19T16:29:24;9.35;;;0.95;;
42614;SDS011;28754;47.700;7.924;2023-11-19T16:34:46;2.95;;;0.90;;
42614;SDS011;28754;47.700;7.924;2023-11-19T16:37:33;4.28;;;1.10;;
42614;SDS011;28754;47.700;7.924;2023-11-19T16:40:21;1.25;;;0.50;;
42614;SDS011;28754;47.700;7.924;2023-11-19T16:43:08;3.22;;;0.65;;
42614;SDS011;28754;47.700;7.924;2023-11-19T16:45:55;3.13;;;0.80;;
42614;SDS011;28754;47.700;7.924;2023-11-19T16:48:46;1.77;;;1.00;;
42614;SDS011;28754;47.700;7.924;2023-11-19T16:51:36;2.85;;;1.90;;
42614;SDS011;28754;47.700;7.924;2023-11-19T16:54:23;2.10;;;0.63;;
42614;SDS011;28754;47.700;7.924;2023-11-19T16:57:10;2.25;;;0.50;;
42614;SDS011;28754;47.700;7.924;2023-11-19T16:59:59;0.73;;;0.35;;
42614;SDS011;28754;47.700;7.924;2023-11-19T17:02:46;4.75;;;0.98;;
42614;SDS011;28754;47.700;7.924;2023-11-19T17:05:33;1.00;;;0.60;;
42614;SDS011;28754;47.700;7.924;2023-11-19T17:08:23;1.30;;;0.60;;
42614;SDS011;28754;47.700;7.924;2023-11-19T17:11:11;0.32;;;0.32;;
42614;SDS011;28754;47.700;7.924;2023-11-19T17:14:01;2.08;;;0.80;;
42614;SDS011;28754;47.700;7.924;2023-11-19T17:16:51;1.75;;;0.60;;
42614;SDS011;28754;47.700;7.924;2023-11-19T17:19:38;1.60;;;0.45;;
42614;SDS011;28754;47.700;7.924;2023-11-19T17:22:26;1.42;;;0.70;;
42614;SDS011;28754;47.700;7.924;2023-11-19T17:25:13;0.32;;;0.30;;
42614;SDS011;28754;47.700;7.924;2023-11-19T17:28:02;1.20;;;0.60;;
42614;SDS011;28754;47.700;7.924;2023-11-19T17:30:53;0.65;;;0.40;;
42614;SDS011;28754;47.700;7.924;2023-11-19T17:33:40;0.68;;;0.40;;
42614;SDS011;28754;47.700;7.924;2023-11-19T17:36:27;1.60;;;0.47;;
42614;SDS011;28754;47.700;7.924;2023-11-19T17:39:18;0.93;;;0.47;;
42614;SDS011;28754;47.700;7.924;2023-11-19T17:42:05;1.77;;;0.50;;
42614;SDS011;28754;47.700;7.924;2023-11-19T17:44:52;1.45;;;0.85;;
42614;SDS011;28754;47.700;7.924;2023-11-19T17:47:39;0.50;;;0.40;;
42614;SDS011;28754;47.700;7.924;2023-11-19T17:50:29;9.93;;;1.00;;
42614;SDS011;28754;47.700;7.924;2023-11-19T17:53:16;0.40;;;0.32;;
42614;SDS011;28754;47.700;7.924;2023-11-19T17:56:03;0.35;;;0.30;;